VJC336 VVPQ-VVTS
Flight info
| Callsign | VJC336 |
|---|---|
| Flight time | 0h 32m |
| Altitude | 23000 |
| Route | TUNPO2B TUNPO W8 RG W16 TRN TRN5B |
| Aircraft | A320/M-SDE3FGHIRWY/LB1 |
Departure
| Time | 2026-04-21 14:27 |
|---|---|
| Airport | Phú Quốc International Airport (VVPQ) |
Arrival
| Time | 2026-04-21 14:59 |
|---|---|
| Airport | Tan Son Nhat International Airport (VVTS) |
| Time | Latitude | Longitude | Altitude | Speed | Heading |
|---|---|---|---|---|---|
| 2026-04-21 14:18 | 10.16672 | 103.99700 | 35 ft | 0 kts | 6° |
| 2026-04-21 14:23 | 10.16693 | 103.99702 | 35 ft | 6 kts | 5° |
| 2026-04-21 14:23 | 10.16705 | 103.99665 | 35 ft | 9 kts | 271° |
| 2026-04-21 14:24 | 10.16708 | 103.99588 | 35 ft | 13 kts | 272° |
| 2026-04-21 14:24 | 10.16786 | 103.99535 | 35 ft | 16 kts | 300° |
| 2026-04-21 14:24 | 10.16800 | 103.99408 | 35 ft | 20 kts | 277° |
| 2026-04-21 14:24 | 10.16815 | 103.99254 | 35 ft | 24 kts | 276° |
| 2026-04-21 14:25 | 10.16833 | 103.99078 | 35 ft | 26 kts | 276° |
| 2026-04-21 14:25 | 10.16851 | 103.98884 | 35 ft | 29 kts | 274° |
| 2026-04-21 14:25 | 10.16872 | 103.98674 | 35 ft | 30 kts | 277° |
| 2026-04-21 14:25 | 10.16894 | 103.98456 | 35 ft | 32 kts | 274° |
| 2026-04-21 14:26 | 10.16916 | 103.98230 | 35 ft | 33 kts | 276° |
| 2026-04-21 14:26 | 10.16938 | 103.98000 | 35 ft | 33 kts | 276° |
| 2026-04-21 14:26 | 10.17009 | 103.97856 | 35 ft | 19 kts | 4° |
| 2026-04-21 14:26 | 10.17115 | 103.97940 | 35 ft | 23 kts | 91° |
| 2026-04-21 14:27 | 10.17090 | 103.98247 | 35 ft | 77 kts | 97° |
| 2026-04-21 14:27 | 10.17013 | 103.99018 | 35 ft | 142 kts | 95° |
| 2026-04-21 14:27 | 10.16913 | 104.00157 | 351 ft | 168 kts | 94° |
| 2026-04-21 14:27 | 10.16787 | 104.01303 | 1085 ft | 175 kts | 97° |
| 2026-04-21 14:28 | 10.16622 | 104.02626 | 1417 ft | 199 kts | 96° |
| 2026-04-21 14:28 | 10.16473 | 104.04070 | 2001 ft | 212 kts | 95° |
| 2026-04-21 14:28 | 10.16316 | 104.05678 | 2303 ft | 245 kts | 95° |
| 2026-04-21 14:28 | 10.16110 | 104.07817 | 2907 ft | 271 kts | 97° |
| 2026-04-21 14:29 | 10.15722 | 104.11839 | 4169 ft | 301 kts | 97° |
| 2026-04-21 14:29 | 10.15303 | 104.16238 | 5481 ft | 325 kts | 96° |
| 2026-04-21 14:29 | 10.14852 | 104.20927 | 6813 ft | 343 kts | 96° |
| 2026-04-21 14:29 | 10.14374 | 104.25829 | 8147 ft | 355 kts | 96° |
| 2026-04-21 14:30 | 10.13881 | 104.30883 | 9484 ft | 365 kts | 95° |
| 2026-04-21 14:30 | 10.13301 | 104.36073 | 10809 ft | 376 kts | 101° |
| 2026-04-21 14:30 | 10.11829 | 104.41212 | 12145 ft | 386 kts | 108° |
| 2026-04-21 14:30 | 10.10115 | 104.46432 | 13428 ft | 395 kts | 108° |
| 2026-04-21 14:31 | 10.08437 | 104.51769 | 14712 ft | 401 kts | 107° |
| 2026-04-21 14:31 | 10.06760 | 104.57218 | 15851 ft | 409 kts | 107° |
| 2026-04-21 14:31 | 10.05377 | 104.62850 | 16946 ft | 416 kts | 101° |
| 2026-04-21 14:31 | 10.04345 | 104.68745 | 18001 ft | 423 kts | 100° |
| 2026-04-21 14:32 | 10.03277 | 104.74646 | 19037 ft | 428 kts | 100° |
| 2026-04-21 14:32 | 10.02144 | 104.80614 | 20005 ft | 434 kts | 100° |
| 2026-04-21 14:32 | 10.00999 | 104.86648 | 20915 ft | 440 kts | 100° |
| 2026-04-21 14:32 | 9.99843 | 104.92769 | 21760 ft | 445 kts | 99° |
| 2026-04-21 14:33 | 9.98671 | 104.98950 | 22530 ft | 450 kts | 99° |
| 2026-04-21 14:33 | 9.98012 | 105.02417 | 22928 ft | 449 kts | 99° |
| 2026-04-21 14:33 | 9.97416 | 105.05554 | 22945 ft | 459 kts | 99° |
| 2026-04-21 14:33 | 9.96809 | 105.08748 | 22902 ft | 465 kts | 99° |
| 2026-04-21 14:34 | 9.96351 | 105.11995 | 22910 ft | 466 kts | 91° |
| 2026-04-21 14:34 | 9.96398 | 105.15278 | 22911 ft | 466 kts | 84° |
| 2026-04-21 14:34 | 9.96849 | 105.18527 | 22909 ft | 466 kts | 78° |
| 2026-04-21 14:34 | 9.97550 | 105.21730 | 22910 ft | 466 kts | 75° |
| 2026-04-21 14:35 | 9.98349 | 105.24952 | 22909 ft | 466 kts | 75° |
| 2026-04-21 14:35 | 9.99130 | 105.28140 | 22909 ft | 466 kts | 76° |
| 2026-04-21 14:35 | 9.99870 | 105.31338 | 22909 ft | 467 kts | 76° |
| 2026-04-21 14:35 | 10.00574 | 105.34547 | 22909 ft | 467 kts | 77° |
| 2026-04-21 14:36 | 10.01261 | 105.37762 | 22909 ft | 467 kts | 77° |
| 2026-04-21 14:36 | 10.01944 | 105.40977 | 22909 ft | 467 kts | 77° |
| 2026-04-21 14:36 | 10.02634 | 105.44192 | 22909 ft | 467 kts | 77° |
| 2026-04-21 14:36 | 10.03329 | 105.47407 | 22909 ft | 467 kts | 77° |
| 2026-04-21 14:37 | 10.04027 | 105.50618 | 22909 ft | 467 kts | 77° |
| 2026-04-21 14:37 | 10.04724 | 105.53828 | 22909 ft | 467 kts | 77° |
| 2026-04-21 14:37 | 10.05421 | 105.57048 | 22909 ft | 468 kts | 77° |
| 2026-04-21 14:37 | 10.06114 | 105.60267 | 22909 ft | 468 kts | 77° |
| 2026-04-21 14:38 | 10.06807 | 105.63487 | 22909 ft | 468 kts | 77° |
| 2026-04-21 14:38 | 10.07502 | 105.66707 | 22909 ft | 468 kts | 77° |
| 2026-04-21 14:38 | 10.08215 | 105.69963 | 22909 ft | 468 kts | 76° |
| 2026-04-21 14:38 | 10.09088 | 105.73139 | 22909 ft | 468 kts | 72° |
| 2026-04-21 14:39 | 10.10124 | 105.76260 | 22909 ft | 467 kts | 70° |
| 2026-04-21 14:39 | 10.11228 | 105.79358 | 22909 ft | 467 kts | 69° |
| 2026-04-21 14:39 | 10.12334 | 105.82453 | 22909 ft | 467 kts | 70° |
| 2026-04-21 14:39 | 10.13417 | 105.85557 | 22909 ft | 467 kts | 70° |
| 2026-04-21 14:40 | 10.14476 | 105.88670 | 22909 ft | 467 kts | 70° |
| 2026-04-21 14:40 | 10.15521 | 105.91786 | 22909 ft | 467 kts | 70° |
| 2026-04-21 14:40 | 10.16563 | 105.94903 | 22909 ft | 467 kts | 70° |
| 2026-04-21 14:40 | 10.17609 | 105.98018 | 22909 ft | 467 kts | 70° |
| 2026-04-21 14:41 | 10.18661 | 106.01140 | 22907 ft | 467 kts | 70° |
| 2026-04-21 14:41 | 10.19699 | 106.04218 | 22755 ft | 456 kts | 70° |
| 2026-04-21 14:41 | 10.20721 | 106.07254 | 22517 ft | 443 kts | 71° |
| 2026-04-21 14:41 | 10.21697 | 106.10162 | 22270 ft | 430 kts | 71° |
| 2026-04-21 14:42 | 10.22647 | 106.12984 | 22021 ft | 417 kts | 71° |
| 2026-04-21 14:42 | 10.23571 | 106.15726 | 21772 ft | 406 kts | 71° |
| 2026-04-21 14:42 | 10.24479 | 106.18423 | 21526 ft | 404 kts | 71° |
| 2026-04-21 14:42 | 10.25384 | 106.21113 | 21272 ft | 402 kts | 71° |
| 2026-04-21 14:43 | 10.26353 | 106.23769 | 20978 ft | 402 kts | 66° |
| 2026-04-21 14:43 | 10.27358 | 106.26401 | 20461 ft | 400 kts | 70° |
| 2026-04-21 14:43 | 10.28266 | 106.29082 | 19648 ft | 404 kts | 71° |
| 2026-04-21 14:43 | 10.29162 | 106.31789 | 18790 ft | 407 kts | 71° |
| 2026-04-21 14:44 | 10.30081 | 106.34512 | 17979 ft | 409 kts | 71° |
| 2026-04-21 14:44 | 10.31035 | 106.37273 | 17244 ft | 408 kts | 71° |
| 2026-04-21 14:44 | 10.31978 | 106.39959 | 16684 ft | 402 kts | 71° |
| 2026-04-21 14:44 | 10.32914 | 106.42615 | 16070 ft | 398 kts | 70° |
| 2026-04-21 14:45 | 10.33839 | 106.45241 | 15491 ft | 393 kts | 71° |
| 2026-04-21 14:45 | 10.34751 | 106.47840 | 14895 ft | 388 kts | 71° |
| 2026-04-21 14:45 | 10.35641 | 106.50378 | 14635 ft | 373 kts | 70° |
| 2026-04-21 14:45 | 10.36481 | 106.52776 | 14218 ft | 352 kts | 70° |
| 2026-04-21 14:46 | 10.37019 | 106.54311 | 13790 ft | 344 kts | 70° |
| 2026-04-21 14:46 | 10.38073 | 106.57312 | 12794 ft | 334 kts | 70° |
| 2026-04-21 14:46 | 10.38595 | 106.58798 | 12263 ft | 330 kts | 70° |
| 2026-04-21 14:46 | 10.39597 | 106.61648 | 11428 ft | 317 kts | 69° |
| 2026-04-21 14:47 | 10.40719 | 106.63504 | 10858 ft | 306 kts | 47° |
| 2026-04-21 14:47 | 10.41733 | 106.64519 | 10464 ft | 300 kts | 42° |
| 2026-04-21 14:47 | 10.43303 | 106.65889 | 9820 ft | 295 kts | 39° |
| 2026-04-21 14:47 | 10.44872 | 106.67202 | 9202 ft | 290 kts | 39° |
| 2026-04-21 14:48 | 10.46421 | 106.68495 | 8584 ft | 286 kts | 39° |
| 2026-04-21 14:48 | 10.47947 | 106.69765 | 7971 ft | 282 kts | 39° |
| 2026-04-21 14:48 | 10.49458 | 106.71014 | 7368 ft | 279 kts | 39° |
| 2026-04-21 14:48 | 10.50959 | 106.72244 | 6766 ft | 276 kts | 39° |
| 2026-04-21 14:49 | 10.52445 | 106.73451 | 6279 ft | 269 kts | 39° |
| 2026-04-21 14:49 | 10.53899 | 106.74626 | 6111 ft | 269 kts | 39° |
| 2026-04-21 14:49 | 10.55361 | 106.75803 | 5912 ft | 268 kts | 39° |
| 2026-04-21 14:49 | 10.56842 | 106.76990 | 5609 ft | 269 kts | 39° |
| 2026-04-21 14:50 | 10.58317 | 106.78165 | 5392 ft | 271 kts | 39° |
| 2026-04-21 14:50 | 10.59808 | 106.79345 | 5213 ft | 273 kts | 39° |
| 2026-04-21 14:50 | 10.61312 | 106.80526 | 5037 ft | 274 kts | 39° |
| 2026-04-21 14:50 | 10.62818 | 106.81706 | 4862 ft | 274 kts | 39° |
| 2026-04-21 14:51 | 10.64329 | 106.82881 | 4687 ft | 274 kts | 39° |
| 2026-04-21 14:51 | 10.65839 | 106.84052 | 4518 ft | 273 kts | 39° |
| 2026-04-21 14:51 | 10.67347 | 106.85220 | 4367 ft | 273 kts | 39° |
| 2026-04-21 14:51 | 10.68857 | 106.86386 | 4217 ft | 273 kts | 39° |
| 2026-04-21 14:52 | 10.70370 | 106.87549 | 4075 ft | 272 kts | 39° |
| 2026-04-21 14:52 | 10.71876 | 106.88704 | 4017 ft | 272 kts | 39° |
| 2026-04-21 14:52 | 10.73386 | 106.89857 | 4003 ft | 271 kts | 39° |
| 2026-04-21 14:52 | 10.74967 | 106.90891 | 3995 ft | 272 kts | 22° |
| 2026-04-21 14:53 | 10.76798 | 106.91171 | 4006 ft | 264 kts | 360° |
| 2026-04-21 14:53 | 10.78623 | 106.91042 | 3995 ft | 255 kts | 356° |
| 2026-04-21 14:53 | 10.80357 | 106.90871 | 4002 ft | 249 kts | 356° |
| 2026-04-21 14:53 | 10.82074 | 106.90725 | 3996 ft | 246 kts | 358° |
| 2026-04-21 14:54 | 10.83751 | 106.90620 | 3999 ft | 239 kts | 359° |
| 2026-04-21 14:54 | 10.85387 | 106.90400 | 3978 ft | 240 kts | 339° |
| 2026-04-21 14:54 | 10.86728 | 106.89426 | 3843 ft | 239 kts | 306° |
| 2026-04-21 14:54 | 10.87391 | 106.87917 | 3703 ft | 233 kts | 282° |
| 2026-04-21 14:55 | 10.87706 | 106.86319 | 3545 ft | 230 kts | 278° |
| 2026-04-21 14:55 | 10.87990 | 106.84590 | 3380 ft | 228 kts | 277° |
| 2026-04-21 14:55 | 10.88245 | 106.83002 | 3229 ft | 227 kts | 277° |
| 2026-04-21 14:55 | 10.88165 | 106.81432 | 3080 ft | 221 kts | 250° |
| 2026-04-21 14:56 | 10.87676 | 106.79973 | 2920 ft | 215 kts | 245° |
| 2026-04-21 14:56 | 10.87131 | 106.78562 | 2632 ft | 214 kts | 245° |
| 2026-04-21 14:56 | 10.86588 | 106.77161 | 2327 ft | 207 kts | 245° |
| 2026-04-21 14:56 | 10.86075 | 106.75818 | 2074 ft | 199 kts | 245° |
| 2026-04-21 14:57 | 10.85590 | 106.74535 | 1780 ft | 191 kts | 246° |
| 2026-04-21 14:57 | 10.85129 | 106.73313 | 1530 ft | 179 kts | 245° |
| 2026-04-21 14:57 | 10.84698 | 106.72172 | 1308 ft | 166 kts | 246° |
| 2026-04-21 14:57 | 10.84304 | 106.71127 | 1073 ft | 151 kts | 246° |
| 2026-04-21 14:58 | 10.83944 | 106.70174 | 877 ft | 140 kts | 246° |
| 2026-04-21 14:58 | 10.83592 | 106.69246 | 692 ft | 141 kts | 246° |
| 2026-04-21 14:58 | 10.83242 | 106.68317 | 507 ft | 141 kts | 246° |
| 2026-04-21 14:58 | 10.82894 | 106.67391 | 313 ft | 140 kts | 246° |
| 2026-04-21 14:59 | 10.82542 | 106.66471 | 131 ft | 140 kts | 246° |
| 2026-04-21 14:59 | 10.82204 | 106.65569 | 47 ft | 128 kts | 245° |
| 2026-04-21 14:59 | 10.81940 | 106.64875 | 44 ft | 76 kts | 249° |
| 2026-04-21 14:59 | 10.81814 | 106.64549 | 44 ft | 33 kts | 247° |
| 2026-04-21 15:00 | 10.81684 | 106.64365 | 44 ft | 32 kts | 219° |
| 2026-04-21 15:00 | 10.81526 | 106.64295 | 45 ft | 12 kts | 162° |
| 2026-04-21 15:00 | 10.81495 | 106.64308 | 45 ft | 6 kts | 158° |
| 2026-04-21 15:00 | 10.81437 | 106.64330 | 45 ft | 12 kts | 159° |
| 2026-04-21 15:01 | 10.81342 | 106.64367 | 45 ft | 17 kts | 159° |
| 2026-04-21 15:01 | 10.81246 | 106.64437 | 45 ft | 18 kts | 87° |
| 2026-04-21 15:01 | 10.81294 | 106.64571 | 45 ft | 22 kts | 69° |
| 2026-04-21 15:01 | 10.81353 | 106.64728 | 45 ft | 25 kts | 69° |
| 2026-04-21 15:02 | 10.81420 | 106.64904 | 45 ft | 28 kts | 69° |
| 2026-04-21 15:02 | 10.81491 | 106.65094 | 45 ft | 30 kts | 69° |
| 2026-04-21 15:02 | 10.81568 | 106.65296 | 45 ft | 31 kts | 69° |
| 2026-04-21 15:02 | 10.81649 | 106.65509 | 45 ft | 32 kts | 69° |
| 2026-04-21 15:03 | 10.81725 | 106.65711 | 45 ft | 22 kts | 74° |
| 2026-04-21 15:03 | 10.81678 | 106.65866 | 45 ft | 23 kts | 95° |
| 2026-04-21 15:03 | 10.81722 | 106.66004 | 45 ft | 17 kts | 74° |
| 2026-04-21 15:03 | 10.81643 | 106.66049 | 45 ft | 17 kts | 186° |
| 2026-04-21 15:04 | 10.81525 | 106.66039 | 45 ft | 17 kts | 185° |
| 2026-04-21 15:04 | 10.81405 | 106.66027 | 45 ft | 18 kts | 187° |
| 2026-04-21 15:04 | 10.81300 | 106.66020 | 45 ft | 12 kts | 179° |
| 2026-04-21 15:04 | 10.81266 | 106.66045 | 45 ft | 3 kts | 110° |
| 2026-04-21 15:05 | 10.81261 | 106.66073 | 45 ft | 4 kts | 95° |
| 2026-04-21 15:05 | 10.81260 | 106.66095 | 45 ft | 1 kts | 95° |
| 2026-04-21 15:05 | 10.81259 | 106.66105 | 45 ft | 1 kts | 94° |
| 2026-04-21 15:06 | 10.81259 | 106.66107 | 45 ft | 0 kts | 94° |